Time;durP1;ratioP1;P1;durP2;ratioP2;P2;SDS_P1;SDS_P2;PMS_P1;PMS_P2;Temp;Humidity;BMP_temperature;BMP_pressure;BME280_temperature;BME280_humidity;BME280_pressure;Samples;Min_cycle;Max_cycle;Signal;HPM_P1;HPM_P2
2022/09/17 00:01:37;;;;;;;1.42;1.33;;;;;;;11.69;73.25;96240.09;6184699;23;20024;-80
2022/09/17 00:04:22;;;;;;;1.13;1.00;;;;;;;11.70;74.62;96237.28;6160191;23;20001;-80
2022/09/17 00:07:10;;;;;;;3.22;1.33;;;;;;;11.64;72.32;96232.06;6184414;23;20021;-82
2022/09/17 00:10:08;;;;;;;1.92;1.40;;;;;;;11.61;73.13;96241.09;6182587;23;20063;-83
2022/09/17 00:16:28;;;;;;;2.33;1.88;;;;;;;11.55;73.14;96234.84;6183615;23;20045;-85
2022/09/17 00:19:32;;;;;;;2.88;1.67;;;;;;;11.55;74.01;96234.84;6177454;23;20005;-85
2022/09/17 00:25:21;;;;;;;1.85;1.38;;;;;;;11.51;73.33;96241.44;6184598;23;20011;-80
2022/09/17 00:27:58;;;;;;;2.40;1.83;;;;;;;11.48;73.49;96247.06;6155025;23;20006;-81
2022/09/17 00:30:46;;;;;;;1.38;1.33;;;;;;;11.46;73.52;96243.84;6154371;23;20022;-82
2022/09/17 00:33:37;;;;;;;1.90;1.50;;;;;;;11.46;73.56;96243.84;6130899;23;20018;-81
2022/09/17 00:36:16;;;;;;;1.52;1.42;;;;;;;11.49;74.76;96238.22;6154292;23;20006;-82
2022/09/17 00:39:18;;;;;;;1.70;1.52;;;;;;;11.50;73.29;96237.25;6182906;23;20064;-83
2022/09/17 00:42:20;;;;;;;1.48;1.38;;;;;;;11.45;73.53;96236.22;6177689;23;20013;-82
2022/09/17 00:44:59;;;;;;;4.63;1.77;;;;;;;11.37;71.22;96234.59;6183948;23;20017;-81
2022/09/17 00:47:45;;;;;;;3.15;2.05;;;;;;;11.32;71.03;96222.09;6180564;23;20033;-81
2022/09/17 00:50:46;;;;;;;2.35;1.63;;;;;;;11.28;71.97;96222.69;6184361;23;20010;-80
2022/09/17 00:53:32;;;;;;;2.05;1.88;;;;;;;11.26;71.11;96219.47;6183567;23;20037;-80
2022/09/17 00:56:21;;;;;;;2.63;2.42;;;;;;;11.26;74.48;96222.06;6184115;23;20013;-82
2022/09/17 00:58:59;;;;;;;1.73;1.63;;;;;;;11.25;73.29;96225.69;6183996;23;20021;-81
2022/09/17 01:04:19;;;;;;;3.45;2.05;;;;;;;11.26;74.21;96237.72;6184606;23;19997;-79
2022/09/17 01:07:16;;;;;;;2.17;1.88;;;;;;;11.28;75.89;96230.50;6183910;23;20005;-79
2022/09/17 01:10:05;;;;;;;1.92;1.83;;;;;;;11.31;76.41;96244.00;6183903;23;20017;-79
2022/09/17 01:13:04;;;;;;;1.70;1.60;;;;;;;11.30;77.00;96236.34;6183527;23;20061;-79
2022/09/17 01:15:48;;;;;;;1.52;1.42;;;;;;;11.28;75.69;96251.41;6183976;23;20021;-81
2022/09/17 01:18:48;;;;;;;3.20;1.80;;;;;;;11.35;77.64;96249.66;6183986;23;20005;-82
2022/09/17 01:21:58;;;;;;;3.38;1.90;;;;;;;11.36;77.04;96256.47;6183937;23;20057;-82
2022/09/17 01:28:31;;;;;;;1.58;1.40;;;;;;;11.40;72.95;96249.06;6171981;23;20030;-80
2022/09/17 01:31:44;;;;;;;1.95;1.77;;;;;;;11.43;77.13;96256.50;6183169;23;20057;-80
2022/09/17 01:34:32;;;;;;;2.15;1.90;;;;;;;11.47;74.90;96250.69;6183838;23;20002;-80
2022/09/17 01:37:16;;;;;;;1.90;1.80;;;;;;;11.51;76.10;96254.50;6183293;23;20010;-79
2022/09/17 01:42:57;;;;;;;1.63;1.52;;;;;;;11.59;74.17;96260.56;6184499;23;19998;-78
2022/09/17 01:45:41;;;;;;;2.72;1.67;;;;;;;11.61;76.53;96261.16;6183643;23;20010;-80
2022/09/17 01:48:22;;;;;;;2.30;1.75;;;;;;;11.62;76.68;96260.19;6183077;23;20084;-81
2022/09/17 01:51:11;;;;;;;2.45;1.58;;;;;;;11.66;78.43;96269.25;6183802;23;20005;-80
2022/09/17 01:53:52;;;;;;;2.17;2.00;;;;;;;11.64;74.13;96271.25;6183727;23;20001;-78
2022/09/17 01:59:30;;;;;;;2.67;1.67;;;;;;;11.69;77.34;96274.06;6178281;23;20044;-79
2022/09/17 02:02:22;;;;;;;2.25;1.58;;;;;;;11.71;76.64;96277.28;6183495;23;20081;-80
2022/09/17 02:17:27;;;;;;;1.58;1.48;;;;;;;11.90;76.17;96271.34;6270804;22;20008;-83
2022/09/17 02:21:22;;;;;;;1.90;1.70;;;;;;;11.90;75.60;96276.56;6275732;22;20027;-84
2022/09/17 02:27:32;;;;;;;2.15;1.50;;;;;;;11.88;73.71;96268.13;6179833;23;20009;-80
2022/09/17 02:30:24;;;;;;;2.05;1.30;;;;;;;11.85;74.82;96268.50;6185469;23;20025;-81
2022/09/17 02:33:03;;;;;;;2.22;1.50;;;;;;;11.86;74.96;96266.69;6185653;23;20009;-81
2022/09/17 02:35:45;;;;;;;1.95;1.45;;;;;;;11.86;75.58;96274.53;6185552;23;20053;-80
2022/09/17 02:38:35;;;;;;;1.80;1.42;;;;;;;11.85;74.69;96278.13;6179834;23;20300;-81
2022/09/17 02:41:33;;;;;;;2.35;1.58;;;;;;;11.84;76.22;96269.47;6185539;23;20017;-80
2022/09/17 02:44:28;;;;;;;1.98;1.60;;;;;;;11.85;75.71;96272.88;6185542;23;20028;-80
2022/09/17 02:47:22;;;;;;;2.15;1.48;;;;;;;11.87;76.40;96268.28;6185620;23;20014;-79
2022/09/17 02:50:29;;;;;;;2.08;1.40;;;;;;;11.85;74.66;96262.44;6185171;23;20041;-82
2022/09/17 02:53:33;;;;;;;2.65;1.73;;;;;;;11.79;73.16;96274.50;6185279;23;20002;-80
2022/09/17 02:56:33;;;;;;;1.60;1.50;;;;;;;11.79;75.43;96264.06;6185215;23;20061;-81
2022/09/17 03:08:58;;;;;;;1.60;1.20;;;;;;;11.68;72.78;96252.38;6155698;23;20055;-82
2022/09/17 03:17:21;;;;;;;4.63;1.75;;;;;;;11.53;73.60;96249.09;6176328;23;20068;-80
2022/09/17 03:20:07;;;;;;;3.70;1.60;;;;;;;11.50;74.03;96255.53;6184919;23;20009;-81
2022/09/17 03:22:54;;;;;;;4.32;1.73;;;;;;;11.48;72.57;96257.53;6185093;23;20062;-82
2022/09/17 03:31:38;;;;;;;2.45;1.67;;;;;;;11.44;73.74;96258.91;6202098;23;20021;-78
2022/09/17 03:34:22;;;;;;;3.30;1.30;;;;;;;11.46;73.61;96259.53;6212696;23;20048;-79
2022/09/17 03:40:02;;;;;;;3.38;1.33;;;;;;;11.49;71.95;96259.13;6187519;23;20036;-80
2022/09/17 03:42:42;;;;;;;2.80;1.50;;;;;;;11.49;72.94;96264.34;6159560;23;20002;-82
2022/09/17 03:45:32;;;;;;;2.58;1.42;;;;;;;11.49;73.38;96256.50;6185116;23;20038;-83
2022/09/17 03:48:08;;;;;;;4.30;1.25;;;;;;;11.50;73.97;96268.59;6155124;23;20008;-80
2022/09/17 03:54:06;;;;;;;4.05;1.25;;;;;;;11.52;74.32;96263.97;6165984;23;20012;-82
2022/09/17 03:56:54;;;;;;;1.90;1.27;;;;;;;11.51;73.44;96264.97;6184740;23;20016;-82
2022/09/17 03:59:38;;;;;;;3.17;1.38;;;;;;;11.47;72.39;96266.34;6184759;23;20006;-81
2022/09/17 04:02:14;;;;;;;2.07;1.13;;;;;;;11.46;72.33;96256.13;6184566;23;20009;-82
2022/09/17 04:04:51;;;;;;;3.15;1.45;;;;;;;11.47;72.70;96250.69;6184627;23;20029;-79
2022/09/17 04:07:23;;;;;;;3.65;1.15;;;;;;;11.48;72.02;96252.31;6184094;23;20005;-80
2022/09/17 04:10:06;;;;;;;13.88;1.98;;;;;;;11.47;71.77;96249.88;6184117;23;20001;-79
2022/09/17 04:12:46;;;;;;;2.42;1.02;;;;;;;11.42;71.57;96247.84;6184313;23;20045;-80
2022/09/17 04:15:18;;;;;;;5.63;1.20;;;;;;;11.36;70.82;96243.41;6183883;23;20002;-79
2022/09/17 04:17:59;;;;;;;2.38;1.35;;;;;;;11.35;71.73;96247.03;6184356;23;20001;-80
2022/09/17 04:20:32;;;;;;;8.00;1.63;;;;;;;11.37;71.79;96252.88;6184112;23;20042;-80
2022/09/17 04:23:19;;;;;;;4.65;1.38;;;;;;;11.39;72.40;96247.44;6160097;23;20075;-80
2022/09/17 04:25:51;;;;;;;5.80;1.30;;;;;;;11.41;72.09;96243.63;6162777;23;20026;-81
2022/09/17 04:28:27;;;;;;;3.20;1.30;;;;;;;11.42;73.10;96241.84;6195685;23;20009;-78
2022/09/17 04:31:03;;;;;;;6.18;1.30;;;;;;;11.39;70.61;96235.19;6213773;23;20005;-81
2022/09/17 04:33:36;;;;;;;4.50;1.30;;;;;;;11.33;72.11;96236.78;6214096;23;20001;-86
2022/09/17 04:36:28;;;;;;;4.97;1.10;;;;;;;11.34;71.87;96243.59;6224165;22;20036;-85
2022/09/17 04:39:26;;;;;;;5.93;1.58;;;;;;;11.30;70.85;96249.41;6244381;22;20098;-83
2022/09/17 04:42:08;;;;;;;4.70;1.23;;;;;;;11.28;71.55;96248.78;6227566;22;20036;-81
2022/09/17 04:44:52;;;;;;;6.90;1.60;;;;;;;11.28;71.07;96254.00;6213579;23;20004;-83
2022/09/17 04:52:50;;;;;;;4.75;1.33;;;;;;;11.17;70.69;96276.25;6242510;23;20032;-80
2022/09/17 04:55:22;;;;;;;4.13;1.80;;;;;;;11.16;70.82;96266.03;6243500;23;20004;-80
2022/09/17 04:57:55;;;;;;;4.85;1.48;;;;;;;11.17;71.30;96267.63;6213510;23;20029;-80
2022/09/17 05:00:24;;;;;;;4.75;1.48;;;;;;;11.16;70.60;96266.03;6213818;23;20005;-80
2022/09/17 05:02:55;;;;;;;6.05;1.52;;;;;;;11.11;69.94;96272.63;6213815;23;20083;-80
2022/09/17 05:05:33;;;;;;;3.90;1.20;;;;;;;11.08;69.23;96273.00;6202373;23;20064;-82
2022/09/17 05:49:59;;;;;;;5.23;1.10;;;;;;;10.74;69.27;96291.28;6172388;23;20266;-79
2022/09/17 05:52:28;;;;;;;9.10;1.75;;;;;;;10.75;70.33;96298.09;6181690;23;20264;-80
2022/09/17 05:54:58;;;;;;;5.80;1.20;;;;;;;10.76;70.36;96289.25;6176869;23;20021;-81
2022/09/17 05:57:28;;;;;;;4.28;1.52;;;;;;;10.76;69.25;96297.09;6177603;23;20017;-81
2022/09/17 05:59:56;;;;;;;5.50;1.60;;;;;;;10.74;69.77;96296.50;6165668;23;20073;-78
2022/09/17 06:02:23;;;;;;;3.28;1.52;;;;;;;10.69;69.46;96300.47;6166338;23;20041;-80
2022/09/17 06:04:51;;;;;;;5.75;1.63;;;;;;;10.68;69.70;96309.28;6171412;23;20017;-80
2022/09/17 06:07:27;;;;;;;5.30;1.55;;;;;;;10.67;69.28;96307.69;6172934;23;20054;-81
2022/09/17 06:09:59;;;;;;;5.05;1.60;;;;;;;10.66;69.55;96311.28;6167382;23;20393;-80
2022/09/17 06:15:08;;;;;;;4.22;1.65;;;;;;;10.66;70.00;96316.47;6182676;23;20025;-78
2022/09/17 06:28:21;;;;;;;8.37;1.50;;;;;;;10.64;69.50;96328.91;6183619;23;20281;-81
2022/09/17 06:31:11;;;;;;;7.65;1.45;;;;;;;10.60;68.96;96332.88;6175946;23;20323;-82
2022/09/17 06:36:33;;;;;;;5.35;1.70;;;;;;;10.59;70.72;96341.72;6195906;23;20004;-84
2022/09/17 06:52:52;;;;;;;5.15;1.88;;;;;;;10.64;72.02;96369.84;6164191;23;20033;-84
2022/09/17 06:55:23;;;;;;;3.72;1.42;;;;;;;10.64;72.36;96369.84;6185422;23;20012;-85
2022/09/17 06:58:02;;;;;;;2.85;1.52;;;;;;;10.66;72.91;96368.66;6162668;23;20022;-85
2022/09/17 07:00:33;;;;;;;5.57;1.98;;;;;;;10.70;72.79;96374.31;6186710;23;20016;-85
2022/09/17 07:05:47;;;;;;;4.18;1.50;;;;;;;10.68;72.31;96374.50;6177687;23;20001;-85
2022/09/17 07:08:25;;;;;;;5.57;2.08;;;;;;;10.65;72.17;96382.72;6186979;23;20036;-85
2022/09/17 07:10:58;;;;;;;5.82;2.10;;;;;;;10.64;72.85;96383.69;6186462;23;20025;-84
2022/09/17 07:16:05;;;;;;;5.78;1.55;;;;;;;10.62;73.45;96384.88;6210529;23;20069;-84
2022/09/17 07:18:50;;;;;;;3.78;1.70;;;;;;;10.61;73.66;96389.28;6216365;23;20009;-83
2022/09/17 07:30:29;;;;;;;3.78;1.30;;;;;;;10.67;74.72;96387.72;6186551;23;20008;-84
2022/09/17 07:33:15;;;;;;;2.15;1.60;;;;;;;10.72;74.90;96393.19;6186582;23;20013;-84
2022/09/17 07:35:53;;;;;;;2.65;1.48;;;;;;;10.78;75.64;96394.22;6186462;23;20010;-85
2022/09/17 07:38:32;;;;;;;5.32;1.50;;;;;;;10.79;74.22;96401.88;6165886;23;20071;-84
2022/09/17 07:41:11;;;;;;;2.90;1.70;;;;;;;10.83;76.32;96397.91;6186733;23;20033;-84
2022/09/17 07:43:43;;;;;;;5.85;2.25;;;;;;;10.87;74.63;96403.56;6186906;23;20032;-85
2022/09/17 07:46:27;;;;;;;3.47;1.73;;;;;;;10.90;74.98;96403.97;6184583;23;20006;-84
2022/09/17 07:49:06;;;;;;;6.68;2.50;;;;;;;10.90;74.76;96406.59;6184855;23;20013;-86
2022/09/17 07:54:19;;;;;;;4.15;2.20;;;;;;;10.88;75.06;96408.56;6171833;23;20020;-82
2022/09/17 07:59:25;;;;;;;2.88;2.30;;;;;;;10.86;75.11;96405.34;6175281;23;20008;-83
2022/09/17 08:01:54;;;;;;;5.53;2.15;;;;;;;10.90;75.09;96421.44;6184864;23;20029;-81
2022/09/17 08:04:23;;;;;;;5.13;2.33;;;;;;;10.87;74.45;96408.78;6184594;23;20074;-83
2022/09/17 08:07:06;;;;;;;4.35;2.22;;;;;;;10.84;74.66;96416.97;6176133;23;20016;-83
2022/09/17 08:09:34;;;;;;;5.68;2.42;;;;;;;10.83;74.28;96415.38;6184516;23;20009;-83
2022/09/17 08:12:03;;;;;;;3.80;2.65;;;;;;;10.84;74.55;96424.78;6184077;23;20016;-83
2022/09/17 08:36:24;;;;;;;2.67;1.50;;;;;;;11.02;74.39;96424.34;6153218;23;20454;-78
2022/09/17 08:38:53;;;;;;;1.42;1.20;;;;;;;11.02;74.50;96425.16;6154322;23;20026;-74
2022/09/17 08:41:27;;;;;;;1.35;1.25;;;;;;;11.05;75.03;96426.59;6155539;23;20021;-79
2022/09/17 08:44:07;;;;;;;5.03;1.58;;;;;;;11.08;74.16;96428.81;6155290;23;20104;-77
2022/09/17 08:46:43;;;;;;;2.83;1.60;;;;;;;11.11;74.07;96424.03;6158583;23;20044;-78
2022/09/17 08:49:22;;;;;;;3.17;1.80;;;;;;;11.16;73.95;96430.50;6155748;23;20026;-79
2022/09/17 08:52:01;;;;;;;2.95;1.95;;;;;;;11.26;75.54;96433.56;6156031;23;20048;-79
2022/09/17 08:54:36;;;;;;;4.95;1.50;;;;;;;11.36;74.21;96436.66;6155516;23;20024;-79
2022/09/17 08:57:16;;;;;;;2.33;1.70;;;;;;;11.48;74.46;96434.34;6157203;23;20048;-78
2022/09/17 08:59:55;;;;;;;2.75;1.85;;;;;;;11.56;73.67;96439.41;6154549;23;20478;-80
2022/09/17 09:02:40;;;;;;;1.63;1.42;;;;;;;11.59;72.28;96432.97;6155772;23;20083;-79
2022/09/17 09:05:15;;;;;;;2.92;1.38;;;;;;;11.62;71.64;96424.78;6156147;23;20044;-79
2022/09/17 09:07:51;;;;;;;3.40;1.80;;;;;;;11.68;72.22;96431.84;6156971;23;20481;-80
2022/09/17 09:10:23;;;;;;;2.97;1.65;;;;;;;11.69;71.12;96433.44;6155386;23;20025;-78
2022/09/17 09:12:52;;;;;;;2.42;2.17;;;;;;;11.65;71.30;96424.38;6155293;23;20096;-77
2022/09/17 09:15:34;;;;;;;3.88;2.45;;;;;;;11.59;71.24;96446.03;6157341;23;20028;-78
2022/09/17 09:18:12;;;;;;;3.00;2.80;;;;;;;11.51;72.00;96442.59;6163502;23;20025;-78
2022/09/17 09:20:50;;;;;;;8.30;3.47;;;;;;;11.48;72.35;96445.59;6156351;23;20096;-79
2022/09/17 09:23:21;;;;;;;9.25;3.55;;;;;;;11.47;71.32;96448.38;6156264;23;20024;-79
2022/09/17 09:25:54;;;;;;;4.82;3.22;;;;;;;11.49;72.25;96446.38;6156252;23;20061;-79
2022/09/17 09:28:37;;;;;;;4.78;3.08;;;;;;;11.48;71.46;96448.19;6155997;23;20470;-80
2022/09/17 09:31:17;;;;;;;4.18;2.35;;;;;;;11.48;72.34;96444.78;6156583;23;20073;-80
2022/09/17 09:37:29;;;;;;;3.58;2.20;;;;;;;11.53;72.18;96451.03;6155802;23;20547;-79
2022/09/17 09:43:23;;;;;;;8.20;2.83;;;;;;;11.50;70.39;96453.22;6148098;23;20018;-79
2022/09/17 09:46:37;;;;;;;6.75;2.90;;;;;;;11.54;71.49;96455.28;6158374;23;20059;-79
2022/09/17 09:49:38;;;;;;;6.88;2.60;;;;;;;11.65;70.41;96450.50;6171746;23;20022;-79
2022/09/17 09:52:33;;;;;;;6.40;2.45;;;;;;;11.70;70.70;96446.31;6157441;23;20462;-78
2022/09/17 09:55:35;;;;;;;7.78;3.55;;;;;;;11.68;69.94;96457.97;6156162;23;20056;-78
2022/09/17 09:58:28;;;;;;;11.52;2.97;;;;;;;11.62;69.57;96456.13;6155458;23;20024;-79
2022/09/17 10:09:35;;;;;;;5.93;3.22;;;;;;;11.85;69.28;96461.91;6055882;23;20111;-79
2022/09/17 10:18:35;;;;;;;4.03;2.90;;;;;;;11.95;69.63;96451.91;6208696;23;20408;-79
2022/09/17 10:21:02;;;;;;;6.05;3.47;;;;;;;11.92;70.20;96461.97;6215825;23;20027;-78
2022/09/17 10:23:36;;;;;;;6.55;3.00;;;;;;;11.94;70.37;96460.75;6215648;23;20044;-78
2022/09/17 10:29:32;;;;;;;4.05;2.00;;;;;;;12.22;67.99;96456.44;6214190;23;20052;-79
2022/09/17 10:32:18;;;;;;;4.15;2.75;;;;;;;12.23;69.85;96455.47;6216052;23;20032;-80
2022/09/17 10:35:10;;;;;;;4.30;2.88;;;;;;;12.30;68.34;96456.28;6217248;23;20373;-80
2022/09/17 10:44:25;;;;;;;4.70;2.72;;;;;;;12.48;68.28;96450.50;6160234;23;20021;-80
2022/09/17 10:50:18;;;;;;;4.05;2.60;;;;;;;12.57;66.60;96449.31;6164429;23;20112;-79
2022/09/17 10:52:48;;;;;;;4.63;2.33;;;;;;;12.54;67.27;96445.28;6157058;23;20021;-79
2022/09/17 10:55:23;;;;;;;5.88;2.05;;;;;;;12.57;70.15;96451.91;6155792;23;20081;-73
2022/09/17 10:58:13;;;;;;;5.05;2.42;;;;;;;12.64;70.04;96444.91;6155564;23;20025;-73
2022/09/17 11:01:01;;;;;;;7.50;2.38;;;;;;;12.71;68.64;96444.94;6158007;23;20068;-79
2022/09/17 11:04:06;;;;;;;5.18;2.35;;;;;;;12.74;69.18;96442.69;6156706;23;20041;-79
2022/09/17 11:07:16;;;;;;;5.05;2.25;;;;;;;12.74;67.31;96440.06;6139784;23;20076;-79
2022/09/17 11:09:59;;;;;;;6.72;2.30;;;;;;;12.77;67.05;96437.09;6157048;23;20017;-79
2022/09/17 11:12:44;;;;;;;4.40;2.38;;;;;;;12.91;67.20;96439.72;6157436;23;20446;-80
2022/09/17 11:15:30;;;;;;;5.47;2.20;;;;;;;12.94;67.90;96429.66;6157579;23;20076;-79
2022/09/17 11:18:26;;;;;;;4.22;2.38;;;;;;;12.86;66.83;96432.47;6156831;23;20021;-79
2022/09/17 11:21:14;;;;;;;5.00;2.15;;;;;;;12.71;65.94;96440.50;6156701;23;20080;-79
2022/09/17 11:24:10;;;;;;;6.43;2.28;;;;;;;12.60;67.50;96430.59;6156642;23;20450;-79
2022/09/17 11:26:44;;;;;;;4.78;2.00;;;;;;;12.56;66.83;96437.25;6160164;23;20041;-80
2022/09/17 11:29:30;;;;;;;7.20;2.63;;;;;;;12.66;67.45;96434.22;6159489;23;20025;-80
2022/09/17 11:32:06;;;;;;;3.50;1.90;;;;;;;14.08;63.57;96432.94;6156437;23;20040;-80
2022/09/17 11:34:43;;;;;;;4.15;1.85;;;;;;;14.45;59.88;96416.59;6156257;23;20028;-80
2022/09/17 11:37:19;;;;;;;5.72;2.20;;;;;;;14.37;59.74;96417.66;6155685;23;20024;-80
2022/09/17 11:39:51;;;;;;;3.92;1.65;;;;;;;14.23;62.32;96411.66;6156287;23;20034;-80
2022/09/17 11:42:20;;;;;;;3.92;1.60;;;;;;;14.26;61.46;96406.00;6156130;23;20022;-81
2022/09/17 11:44:53;;;;;;;5.55;1.80;;;;;;;14.55;61.08;96406.50;6156745;23;20028;-80
2022/09/17 11:47:25;;;;;;;2.92;1.67;;;;;;;15.11;59.61;96402.22;6160555;23;20018;-81
2022/09/17 11:49:58;;;;;;;7.50;2.25;;;;;;;15.76;57.26;96405.28;6158583;23;20032;-80
2022/09/17 11:52:30;;;;;;;4.13;1.63;;;;;;;15.62;56.36;96409.06;6159772;23;20028;-80
2022/09/17 11:55:02;;;;;;;4.05;1.50;;;;;;;15.22;55.75;96394.47;6162792;23;20028;-81
2022/09/17 11:57:32;;;;;;;;;;;;;;;14.91;57.82;96397.97;6177440;23;20025;-80
2022/09/17 12:00:04;;;;;;;5.55;1.48;;;;;;;14.59;59.68;96415.56;6171899;23;19917;-80
2022/09/17 12:02:44;;;;;;;4.47;1.70;;;;;;;14.28;60.15;96421.53;6158004;23;20017;-80
2022/09/17 12:05:19;;;;;;;5.43;1.60;;;;;;;13.97;61.41;96423.91;6156927;23;20645;-80
2022/09/17 12:07:53;;;;;;;3.90;1.50;;;;;;;13.78;61.51;96422.13;6155481;23;20022;-80
2022/09/17 12:10:40;;;;;;;3.17;1.48;;;;;;;13.67;63.45;96412.28;6154780;23;20021;-80
2022/09/17 12:13:22;;;;;;;4.30;1.80;;;;;;;13.67;63.01;96412.28;6163086;23;20017;-79
2022/09/17 12:15:57;;;;;;;3.80;1.63;;;;;;;13.81;64.47;96413.84;6164568;23;20365;-80
2022/09/17 12:18:37;;;;;;;2.30;1.45;;;;;;;14.03;62.48;96411.75;6166716;23;20051;-81
2022/09/17 12:21:10;;;;;;;2.40;1.45;;;;;;;14.23;60.74;96401.16;6156777;23;20021;-78
2022/09/17 12:23:43;;;;;;;4.63;1.70;;;;;;;14.40;61.81;96415.41;6159570;23;20024;-79
2022/09/17 12:26:24;;;;;;;3.20;1.05;;;;;;;14.60;60.50;96411.91;6159205;23;20366;-78
2022/09/17 12:29:00;;;;;;;3.42;0.93;;;;;;;14.69;60.21;96401.94;6163644;23;20038;-78
2022/09/17 12:31:35;;;;;;;1.85;1.00;;;;;;;14.77;59.76;96418.25;6156825;23;20033;-80
2022/09/17 12:34:18;;;;;;;2.72;0.60;;;;;;;14.78;60.20;96398.03;6158864;23;20013;-79
2022/09/17 12:36:56;;;;;;;0.95;0.60;;;;;;;14.73;59.32;96405.75;6158924;23;20026;-81
2022/09/17 12:39:54;;;;;;;1.85;0.80;;;;;;;14.67;59.93;96396.94;6167392;23;20021;-81
2022/09/17 12:42:38;;;;;;;1.00;0.43;;;;;;;14.58;56.92;96399.00;6165363;23;20023;-81
2022/09/17 12:45:16;;;;;;;2.28;0.80;;;;;;;14.55;57.41;96398.63;6173938;23;20032;-80
2022/09/17 12:48:06;;;;;;;2.72;0.80;;;;;;;14.56;59.70;96405.47;6177130;23;20021;-81
2022/09/17 12:50:49;;;;;;;4.13;1.33;;;;;;;14.57;57.14;96407.09;6164389;23;20088;-82
2022/09/17 12:56:23;;;;;;;1.70;0.57;;;;;;;14.63;56.78;96393.13;6219447;23;20361;-82
2022/09/17 12:59:08;;;;;;;1.27;0.82;;;;;;;14.62;55.65;96396.75;6191486;23;20092;-83
2022/09/17 13:01:43;;;;;;;1.38;0.90;;;;;;;14.56;57.35;96401.03;6189562;23;20017;-81
2022/09/17 13:04:23;;;;;;;2.30;1.55;;;;;;;14.48;57.48;96398.63;6191694;23;20021;-82
2022/09/17 13:07:31;;;;;;;4.55;1.38;;;;;;;14.40;57.65;96393.63;6198041;23;20031;-83
2022/09/17 13:10:33;;;;;;;1.27;0.80;;;;;;;14.34;60.08;96400.53;6194602;23;20017;-82
2022/09/17 13:13:13;;;;;;;1.70;0.80;;;;;;;14.27;57.91;96398.94;6196679;23;20025;-84
2022/09/17 13:15:57;;;;;;;1.50;0.60;;;;;;;14.17;58.82;96407.28;6197197;23;20077;-83
2022/09/17 13:18:34;;;;;;;1.15;0.60;;;;;;;14.12;59.76;96407.06;6200228;23;20017;-83
2022/09/17 13:21:13;;;;;;;1.15;0.93;;;;;;;14.10;60.72;96406.47;6198750;23;20020;-84
2022/09/17 13:23:46;;;;;;;2.28;0.70;;;;;;;14.13;60.48;96406.06;6192833;23;20079;-80
2022/09/17 13:26:17;;;;;;;2.95;0.75;;;;;;;14.16;59.50;96400.41;6194000;23;20070;-80
2022/09/17 13:28:49;;;;;;;3.17;0.90;;;;;;;14.15;59.95;96406.69;6194322;23;20059;-80
2022/09/17 13:31:21;;;;;;;3.05;0.90;;;;;;;14.13;60.87;96406.06;6202342;23;20347;-80
2022/09/17 13:33:58;;;;;;;1.20;0.75;;;;;;;14.11;61.31;96408.09;6200642;23;20017;-80
2022/09/17 13:36:47;;;;;;;1.42;0.85;;;;;;;14.06;59.84;96400.88;6194209;23;20025;-78
2022/09/17 13:39:39;;;;;;;3.63;0.80;;;;;;;13.96;59.48;96403.13;6184290;23;20100;-78
2022/09/17 13:42:13;;;;;;;1.10;0.85;;;;;;;13.84;59.61;96402.97;6183608;23;20027;-79
2022/09/17 13:44:45;;;;;;;3.70;0.68;;;;;;;13.73;59.84;96414.06;6185006;23;20031;-78
2022/09/17 13:47:28;;;;;;;2.15;0.85;;;;;;;13.62;60.04;96430.44;6185937;23;20479;-79
2022/09/17 13:50:00;;;;;;;1.73;0.80;;;;;;;13.51;60.89;96431.84;6190248;23;20025;-80
2022/09/17 13:52:32;;;;;;;2.97;0.75;;;;;;;13.37;61.26;96444.19;6187850;23;20108;-80
2022/09/17 13:55:01;;;;;;;1.30;0.65;;;;;;;13.24;62.59;96438.91;6204629;23;20017;-80
2022/09/17 13:57:32;;;;;;;1.33;0.60;;;;;;;13.12;63.04;96415.97;6219325;23;20020;-81
2022/09/17 14:00:02;;;;;;;1.42;0.80;;;;;;;13.03;64.17;96419.78;6220306;23;20055;-80
2022/09/17 14:02:37;;;;;;;2.90;0.90;;;;;;;12.96;63.09;96432.06;6217992;23;20028;-80
2022/09/17 14:05:36;;;;;;;1.90;1.00;;;;;;;12.89;64.62;96418.97;6222197;23;20027;-80
2022/09/17 14:08:12;;;;;;;3.88;2.17;;;;;;;12.86;63.93;96413.34;6224898;23;20043;-81
2022/09/17 14:10:43;;;;;;;2.50;1.55;;;;;;;12.83;63.43;96411.91;6223819;23;20330;-80
2022/09/17 14:13:43;;;;;;;1.58;0.52;;;;;;;12.80;65.95;96416.75;6229562;23;20021;-79
2022/09/17 14:16:34;;;;;;;1.65;0.47;;;;;;;12.77;64.61;96421.38;6220888;23;20094;-80
2022/09/17 14:19:17;;;;;;;1.38;0.95;;;;;;;12.80;65.58;96424.59;6218991;23;20016;-77
2022/09/17 14:21:59;;;;;;;6.40;3.63;;;;;;;12.83;62.90;96421.56;6220001;23;20361;-77
2022/09/17 14:24:34;;;;;;;3.22;1.92;;;;;;;12.89;65.42;96421.56;6238761;23;20051;-78
2022/09/17 14:27:15;;;;;;;2.78;1.52;;;;;;;12.98;63.96;96419.56;6238442;23;20024;-78
2022/09/17 14:30:05;;;;;;;5.50;3.30;;;;;;;13.01;63.08;96418.34;6215587;23;20035;-77
2022/09/17 14:32:41;;;;;;;1.48;1.08;;;;;;;12.98;63.76;96409.91;6219023;23;20099;-79
2022/09/17 14:35:19;;;;;;;1.15;0.85;;;;;;;12.98;65.24;96409.09;6221581;23;20020;-77
2022/09/17 14:37:53;;;;;;;1.30;1.13;;;;;;;12.99;66.28;96413.34;6219886;23;20357;-77
2022/09/17 14:40:22;;;;;;;1.48;1.38;;;;;;;13.02;66.24;96407.69;6228310;23;20428;-79
2022/09/17 14:42:54;;;;;;;1.67;1.50;;;;;;;13.08;66.14;96404.28;6241386;23;20035;-79
2022/09/17 14:45:26;;;;;;;3.80;1.75;;;;;;;13.14;67.95;96408.72;6239801;23;20027;-79
2022/09/17 14:48:31;;;;;;;1.80;0.80;;;;;;;13.20;67.26;96404.47;6232824;23;20036;-80
2022/09/17 14:51:24;;;;;;;1.90;1.15;;;;;;;13.22;66.96;96405.06;6230974;23;20048;-79
2022/09/17 14:54:15;;;;;;;1.95;0.65;;;;;;;13.22;65.92;96406.88;6219124;23;20099;-80
2022/09/17 14:56:49;;;;;;;2.20;0.70;;;;;;;13.19;66.46;96401.03;6221252;23;20084;-80
2022/09/17 14:59:23;;;;;;;1.23;0.70;;;;;;;13.18;66.81;96401.22;6218998;23;20051;-80
2022/09/17 15:01:51;;;;;;;2.13;0.98;;;;;;;13.14;66.55;96393.00;6218176;23;20025;-79
2022/09/17 15:04:24;;;;;;;1.02;0.85;;;;;;;13.11;68.21;96393.38;6217973;23;20040;-80
2022/09/17 15:06:51;;;;;;;1.85;0.95;;;;;;;13.12;67.56;96392.38;6218489;23;20031;-79
2022/09/17 15:09:23;;;;;;;0.63;0.63;;;;;;;13.15;67.25;96396.41;6220418;23;20035;-80
2022/09/17 15:11:54;;;;;;;1.30;0.50;;;;;;;13.18;67.86;96404.69;6220456;23;20472;-79
2022/09/17 15:14:31;;;;;;;2.90;0.60;;;;;;;13.22;66.34;96404.25;6220814;23;20031;-80
2022/09/17 15:17:01;;;;;;;1.42;0.60;;;;;;;13.20;66.30;96394.78;6217946;23;20103;-80
2022/09/17 15:19:34;;;;;;;1.05;0.70;;;;;;;13.24;65.89;96402.25;6215842;23;20503;-80
2022/09/17 15:22:07;;;;;;;2.55;0.85;;;;;;;13.25;66.37;96393.38;6214370;23;20024;-79
2022/09/17 15:24:41;;;;;;;0.75;0.75;;;;;;;13.26;65.91;96401.03;6217021;23;20020;-79
2022/09/17 15:27:13;;;;;;;1.85;1.05;;;;;;;13.28;67.43;96400.84;6215108;23;20020;-79
2022/09/17 15:29:46;;;;;;;2.38;0.77;;;;;;;13.29;66.81;96400.63;6217049;23;20108;-79
2022/09/17 15:32:14;;;;;;;1.40;0.60;;;;;;;13.26;65.95;96395.78;6215125;23;20013;-79
2022/09/17 15:34:43;;;;;;;2.88;0.63;;;;;;;13.22;66.14;96389.34;6214233;23;20103;-79
2022/09/17 15:37:20;;;;;;;3.22;1.70;;;;;;;13.20;65.59;96386.91;6215058;23;20479;-79
2022/09/17 15:39:50;;;;;;;2.17;0.68;;;;;;;13.25;66.80;96395.97;6216284;23;20027;-79
2022/09/17 15:42:21;;;;;;;1.27;0.73;;;;;;;13.27;65.74;96397.41;6214940;23;20020;-78
2022/09/17 15:44:49;;;;;;;1.73;1.17;;;;;;;13.28;65.05;96393.81;6214879;23;20017;-79
2022/09/17 15:50:07;;;;;;;2.08;0.60;;;;;;;13.30;64.63;96398.84;6098684;23;20018;-76
2022/09/17 15:52:34;;;;;;;1.27;0.65;;;;;;;13.26;63.90;96400.22;6093021;23;20067;-80
2022/09/17 15:55:02;;;;;;;0.88;0.55;;;;;;;13.18;63.67;96396.81;6095605;23;20716;-79
2022/09/17 15:57:32;;;;;;;2.78;0.70;;;;;;;13.15;64.08;96404.25;6097505;23;20105;-77
2022/09/17 16:00:08;;;;;;;1.88;0.75;;;;;;;13.12;63.25;96400.25;6095617;23;20045;-76
2022/09/17 16:02:36;;;;;;;1.33;0.88;;;;;;;13.08;63.34;96399.03;6096641;23;20022;-77
2022/09/17 16:05:45;;;;;;;1.35;0.85;;;;;;;13.06;63.91;96398.44;6096675;23;20042;-78
2022/09/17 16:08:24;;;;;;;1.05;0.95;;;;;;;13.02;63.66;96394.59;6094277;23;20045;-78
2022/09/17 16:10:51;;;;;;;1.58;0.80;;;;;;;12.98;64.11;96396.00;6092378;23;20023;-78
2022/09/17 16:13:19;;;;;;;2.47;1.02;;;;;;;12.96;64.30;96400.63;6091895;23;20478;-78
2022/09/17 16:15:51;;;;;;;1.77;0.75;;;;;;;12.94;64.76;96393.00;6094894;23;20022;-78
2022/09/17 16:18:19;;;;;;;2.67;1.08;;;;;;;12.94;65.43;96394.78;6097330;23;20348;-79